LZB8772 HECA-LBSF
Flight info
| Callsign | LZB8772 |
|---|---|
| Flight time | 2h 14m |
| Altitude | 36000 |
| Route | MENKU L617 NOZ L551 ANTAR UN133 PEREN UL863 EVIVI Y94 VANET |
| Aircraft | A320/M-SDE3FGHIRWY/LB1 |
Departure
| Time | 2026-05-07 10:33 |
|---|---|
| Airport | Cairo International Airport (HECA) |
Arrival
| Time | 2026-05-07 12:47 |
|---|---|
| Airport | Sofia Airport (LBSF) |
| Time | Latitude | Longitude | Altitude | Speed | Heading |
|---|---|---|---|---|---|
| 2026-05-07 10:07 | 30.12982 | 31.40168 | 385 ft | 0 kts | 14° |
| 2026-05-07 10:21 | 30.12983 | 31.40169 | 385 ft | 0 kts | 14° |
| 2026-05-07 10:21 | 30.12989 | 31.40170 | 385 ft | 1 kts | 14° |
| 2026-05-07 10:21 | 30.12991 | 31.40171 | 385 ft | 0 kts | 14° |
| 2026-05-07 10:21 | 30.12992 | 31.40172 | 385 ft | 2 kts | 32° |
| 2026-05-07 10:22 | 30.12972 | 31.40182 | 385 ft | 5 kts | 216° |
| 2026-05-07 10:22 | 30.12947 | 31.40142 | 385 ft | 6 kts | 252° |
| 2026-05-07 10:22 | 30.12958 | 31.40089 | 385 ft | 6 kts | 305° |
| 2026-05-07 10:22 | 30.12995 | 31.40048 | 385 ft | 6 kts | 319° |
| 2026-05-07 10:23 | 30.13030 | 31.40011 | 385 ft | 7 kts | 316° |
| 2026-05-07 10:23 | 30.13069 | 31.39969 | 385 ft | 8 kts | 318° |
| 2026-05-07 10:23 | 30.13116 | 31.39918 | 385 ft | 9 kts | 316° |
| 2026-05-07 10:23 | 30.13156 | 31.39915 | 385 ft | 6 kts | 50° |
| 2026-05-07 10:24 | 30.13189 | 31.39976 | 385 ft | 13 kts | 51° |
| 2026-05-07 10:24 | 30.13258 | 31.40067 | 385 ft | 12 kts | 56° |
| 2026-05-07 10:24 | 30.13287 | 31.40147 | 385 ft | 12 kts | 85° |
| 2026-05-07 10:24 | 30.13271 | 31.40261 | 385 ft | 16 kts | 103° |
| 2026-05-07 10:25 | 30.13236 | 31.40403 | 385 ft | 20 kts | 108° |
| 2026-05-07 10:25 | 30.13180 | 31.40559 | 385 ft | 20 kts | 115° |
| 2026-05-07 10:25 | 30.13090 | 31.40661 | 385 ft | 18 kts | 160° |
| 2026-05-07 10:25 | 30.12968 | 31.40704 | 386 ft | 17 kts | 162° |
| 2026-05-07 10:26 | 30.12850 | 31.40748 | 386 ft | 17 kts | 162° |
| 2026-05-07 10:26 | 30.12730 | 31.40791 | 386 ft | 17 kts | 162° |
| 2026-05-07 10:26 | 30.12613 | 31.40834 | 386 ft | 17 kts | 162° |
| 2026-05-07 10:26 | 30.12494 | 31.40877 | 386 ft | 17 kts | 162° |
| 2026-05-07 10:27 | 30.12369 | 31.40922 | 386 ft | 20 kts | 163° |
| 2026-05-07 10:27 | 30.12221 | 31.40976 | 386 ft | 23 kts | 162° |
| 2026-05-07 10:27 | 30.12054 | 31.41037 | 386 ft | 26 kts | 162° |
| 2026-05-07 10:27 | 30.11875 | 31.41101 | 386 ft | 26 kts | 162° |
| 2026-05-07 10:28 | 30.11704 | 31.41164 | 386 ft | 25 kts | 162° |
| 2026-05-07 10:28 | 30.11539 | 31.41223 | 387 ft | 24 kts | 162° |
| 2026-05-07 10:28 | 30.11398 | 31.41167 | 387 ft | 22 kts | 228° |
| 2026-05-07 10:28 | 30.11295 | 31.41031 | 387 ft | 22 kts | 229° |
| 2026-05-07 10:29 | 30.11194 | 31.40898 | 387 ft | 21 kts | 228° |
| 2026-05-07 10:29 | 30.11077 | 31.40741 | 387 ft | 33 kts | 229° |
| 2026-05-07 10:29 | 30.10944 | 31.40565 | 386 ft | 26 kts | 228° |
| 2026-05-07 10:30 | 30.10723 | 31.40273 | 386 ft | 22 kts | 229° |
| 2026-05-07 10:30 | 30.10608 | 31.40121 | 386 ft | 25 kts | 229° |
| 2026-05-07 10:30 | 30.10493 | 31.39969 | 386 ft | 24 kts | 229° |
| 2026-05-07 10:30 | 30.10384 | 31.39824 | 386 ft | 23 kts | 229° |
| 2026-05-07 10:31 | 30.10277 | 31.39680 | 386 ft | 23 kts | 230° |
| 2026-05-07 10:31 | 30.10171 | 31.39576 | 386 ft | 17 kts | 178° |
| 2026-05-07 10:31 | 30.10070 | 31.39649 | 386 ft | 17 kts | 139° |
| 2026-05-07 10:31 | 30.10006 | 31.39757 | 386 ft | 16 kts | 98° |
| 2026-05-07 10:32 | 30.10043 | 31.39917 | 387 ft | 28 kts | 49° |
| 2026-05-07 10:32 | 30.10289 | 31.40239 | 387 ft | 86 kts | 46° |
| 2026-05-07 10:32 | 30.10817 | 31.40945 | 387 ft | 144 kts | 46° |
| 2026-05-07 10:32 | 30.11527 | 31.41848 | 793 ft | 156 kts | 45° |
| 2026-05-07 10:33 | 30.12265 | 31.42790 | 1399 ft | 159 kts | 45° |
| 2026-05-07 10:33 | 30.13003 | 31.43735 | 2057 ft | 161 kts | 41° |
| 2026-05-07 10:33 | 30.14006 | 31.44317 | 2559 ft | 171 kts | 4° |
| 2026-05-07 10:33 | 30.15197 | 31.43980 | 3017 ft | 192 kts | 331° |
| 2026-05-07 10:34 | 30.16094 | 31.42728 | 3470 ft | 218 kts | 293° |
| 2026-05-07 10:34 | 30.16166 | 31.40905 | 3948 ft | 241 kts | 265° |
| 2026-05-07 10:34 | 30.16124 | 31.38910 | 4418 ft | 253 kts | 288° |
| 2026-05-07 10:34 | 30.16977 | 31.37231 | 5164 ft | 247 kts | 320° |
| 2026-05-07 10:35 | 30.18342 | 31.35970 | 5691 ft | 257 kts | 325° |
| 2026-05-07 10:35 | 30.19809 | 31.34676 | 6080 ft | 266 kts | 326° |
| 2026-05-07 10:35 | 30.21337 | 31.33424 | 6699 ft | 272 kts | 327° |
| 2026-05-07 10:35 | 30.22876 | 31.32193 | 7525 ft | 272 kts | 327° |
| 2026-05-07 10:36 | 30.24442 | 31.30939 | 8287 ft | 274 kts | 326° |
| 2026-05-07 10:36 | 30.26007 | 31.29677 | 9048 ft | 277 kts | 326° |
| 2026-05-07 10:36 | 30.27567 | 31.28413 | 9798 ft | 278 kts | 326° |
| 2026-05-07 10:36 | 30.29159 | 31.27120 | 10508 ft | 283 kts | 326° |
| 2026-05-07 10:37 | 30.30827 | 31.25765 | 10912 ft | 299 kts | 325° |
| 2026-05-07 10:37 | 30.32582 | 31.24333 | 11237 ft | 317 kts | 325° |
| 2026-05-07 10:37 | 30.34424 | 31.22830 | 11541 ft | 334 kts | 325° |
| 2026-05-07 10:37 | 30.36360 | 31.21249 | 11926 ft | 349 kts | 325° |
| 2026-05-07 10:38 | 30.38379 | 31.19598 | 12583 ft | 354 kts | 324° |
| 2026-05-07 10:38 | 30.40370 | 31.17970 | 13300 ft | 356 kts | 324° |
| 2026-05-07 10:38 | 30.42414 | 31.16296 | 14029 ft | 359 kts | 324° |
| 2026-05-07 10:38 | 30.44451 | 31.14625 | 14705 ft | 361 kts | 324° |
| 2026-05-07 10:39 | 30.46506 | 31.12940 | 15331 ft | 365 kts | 324° |
| 2026-05-07 10:39 | 30.48587 | 31.11232 | 15966 ft | 368 kts | 324° |
| 2026-05-07 10:39 | 30.50672 | 31.09521 | 16591 ft | 372 kts | 324° |
| 2026-05-07 10:39 | 30.52805 | 31.07769 | 17184 ft | 375 kts | 324° |
| 2026-05-07 10:40 | 30.54932 | 31.06023 | 17751 ft | 379 kts | 324° |
| 2026-05-07 10:40 | 30.57095 | 31.04244 | 18360 ft | 382 kts | 324° |
| 2026-05-07 10:40 | 30.59276 | 31.02450 | 18974 ft | 384 kts | 324° |
| 2026-05-07 10:40 | 30.61458 | 31.00655 | 19515 ft | 388 kts | 324° |
| 2026-05-07 10:41 | 30.63646 | 30.98854 | 20041 ft | 392 kts | 324° |
| 2026-05-07 10:41 | 30.65900 | 30.96998 | 20548 ft | 396 kts | 324° |
| 2026-05-07 10:41 | 30.68150 | 30.95142 | 21085 ft | 399 kts | 324° |
| 2026-05-07 10:41 | 30.70422 | 30.93268 | 21626 ft | 401 kts | 325° |
| 2026-05-07 10:42 | 30.72697 | 30.91390 | 22115 ft | 405 kts | 324° |
| 2026-05-07 10:42 | 30.75003 | 30.89487 | 22596 ft | 408 kts | 324° |
| 2026-05-07 10:42 | 30.77331 | 30.87564 | 23055 ft | 412 kts | 324° |
| 2026-05-07 10:42 | 30.79659 | 30.85640 | 23527 ft | 415 kts | 324° |
| 2026-05-07 10:43 | 30.82019 | 30.83687 | 24008 ft | 417 kts | 324° |
| 2026-05-07 10:43 | 30.84390 | 30.81726 | 24478 ft | 419 kts | 324° |
| 2026-05-07 10:43 | 30.86751 | 30.79771 | 24880 ft | 423 kts | 324° |
| 2026-05-07 10:43 | 30.89158 | 30.77777 | 25279 ft | 426 kts | 324° |
| 2026-05-07 10:44 | 30.91565 | 30.75780 | 25687 ft | 428 kts | 324° |
| 2026-05-07 10:44 | 30.93989 | 30.73767 | 26098 ft | 429 kts | 324° |
| 2026-05-07 10:44 | 30.96430 | 30.71740 | 26488 ft | 431 kts | 324° |
| 2026-05-07 10:44 | 30.98877 | 30.69706 | 26842 ft | 434 kts | 324° |
| 2026-05-07 10:45 | 31.01342 | 30.67656 | 27227 ft | 435 kts | 323° |
| 2026-05-07 10:45 | 31.03820 | 30.65593 | 27576 ft | 437 kts | 323° |
| 2026-05-07 10:45 | 31.06293 | 30.63535 | 27920 ft | 438 kts | 323° |
| 2026-05-07 10:45 | 31.08754 | 30.61484 | 28373 ft | 437 kts | 323° |
| 2026-05-07 10:46 | 31.11231 | 30.59422 | 28837 ft | 435 kts | 323° |
| 2026-05-07 10:46 | 31.13684 | 30.57389 | 29288 ft | 434 kts | 323° |
| 2026-05-07 10:46 | 31.16137 | 30.55354 | 29745 ft | 432 kts | 323° |
| 2026-05-07 10:46 | 31.18576 | 30.53324 | 30133 ft | 432 kts | 323° |
| 2026-05-07 10:47 | 31.21014 | 30.51291 | 30539 ft | 430 kts | 323° |
| 2026-05-07 10:47 | 31.23434 | 30.49268 | 30911 ft | 429 kts | 323° |
| 2026-05-07 10:47 | 31.25882 | 30.47217 | 31223 ft | 429 kts | 323° |
| 2026-05-07 10:47 | 31.28291 | 30.45198 | 31561 ft | 428 kts | 324° |
| 2026-05-07 10:48 | 31.30709 | 30.43172 | 31958 ft | 425 kts | 324° |
| 2026-05-07 10:48 | 31.33080 | 30.41183 | 32363 ft | 422 kts | 324° |
| 2026-05-07 10:48 | 31.35474 | 30.39175 | 32765 ft | 418 kts | 324° |
| 2026-05-07 10:48 | 31.37807 | 30.37220 | 33156 ft | 415 kts | 324° |
| 2026-05-07 10:49 | 31.40159 | 30.35242 | 33534 ft | 411 kts | 324° |
| 2026-05-07 10:49 | 31.42464 | 30.33296 | 33950 ft | 406 kts | 324° |
| 2026-05-07 10:49 | 31.44729 | 30.31378 | 34335 ft | 401 kts | 324° |
| 2026-05-07 10:49 | 31.46981 | 30.29476 | 34529 ft | 402 kts | 324° |
| 2026-05-07 10:50 | 31.51528 | 30.25632 | 34742 ft | 406 kts | 325° |
| 2026-05-07 10:50 | 31.53835 | 30.23688 | 34913 ft | 406 kts | 324° |
| 2026-05-07 10:50 | 31.56112 | 30.21767 | 35063 ft | 406 kts | 324° |
| 2026-05-07 10:51 | 31.60713 | 30.17871 | 35117 ft | 405 kts | 325° |
| 2026-05-07 10:51 | 31.65272 | 30.14021 | 35126 ft | 404 kts | 325° |
| 2026-05-07 10:52 | 31.69821 | 30.10167 | 35125 ft | 406 kts | 325° |
| 2026-05-07 10:52 | 31.74377 | 30.06310 | 35122 ft | 405 kts | 325° |
| 2026-05-07 10:53 | 31.78946 | 30.02426 | 35132 ft | 405 kts | 325° |
| 2026-05-07 10:53 | 31.83515 | 29.98543 | 35132 ft | 404 kts | 325° |
| 2026-05-07 10:54 | 31.88057 | 29.94679 | 35147 ft | 403 kts | 326° |
| 2026-05-07 10:54 | 31.92584 | 29.90826 | 35152 ft | 403 kts | 326° |
| 2026-05-07 10:55 | 31.97116 | 29.86960 | 35062 ft | 401 kts | 325° |
| 2026-05-07 10:55 | 31.99380 | 29.85026 | 35203 ft | 402 kts | 325° |
| 2026-05-07 10:55 | 32.01624 | 29.83110 | 35176 ft | 403 kts | 325° |
| 2026-05-07 10:56 | 32.06132 | 29.79253 | 35159 ft | 400 kts | 325° |
| 2026-05-07 10:56 | 32.10650 | 29.75382 | 35163 ft | 400 kts | 325° |
| 2026-05-07 10:57 | 32.15178 | 29.71521 | 35151 ft | 399 kts | 326° |
| 2026-05-07 10:57 | 32.19665 | 29.67687 | 35163 ft | 398 kts | 326° |
| 2026-05-07 10:58 | 32.24128 | 29.63853 | 35153 ft | 397 kts | 325° |
| 2026-05-07 10:58 | 32.28596 | 29.60016 | 35152 ft | 397 kts | 326° |
| 2026-05-07 10:59 | 32.33064 | 29.56167 | 35157 ft | 398 kts | 325° |
| 2026-05-07 10:59 | 32.35334 | 29.54208 | 35302 ft | 398 kts | 326° |
| 2026-05-07 10:59 | 32.37557 | 29.52291 | 35576 ft | 396 kts | 325° |
| 2026-05-07 11:00 | 32.39768 | 29.50382 | 35823 ft | 394 kts | 325° |
| 2026-05-07 11:00 | 32.41985 | 29.48468 | 36043 ft | 393 kts | 326° |
| 2026-05-07 11:00 | 32.46378 | 29.44667 | 36144 ft | 390 kts | 325° |
| 2026-05-07 11:01 | 32.50773 | 29.40862 | 36152 ft | 390 kts | 325° |
| 2026-05-07 11:01 | 32.55145 | 29.37065 | 36156 ft | 390 kts | 325° |
| 2026-05-07 11:02 | 32.59510 | 29.33269 | 36156 ft | 388 kts | 324° |
| 2026-05-07 11:02 | 32.63879 | 29.29444 | 36153 ft | 387 kts | 324° |
| 2026-05-07 11:03 | 32.68192 | 29.25674 | 36155 ft | 387 kts | 324° |
| 2026-05-07 11:03 | 32.72541 | 29.21879 | 36160 ft | 387 kts | 325° |
| 2026-05-07 11:04 | 32.76897 | 29.18079 | 36155 ft | 387 kts | 324° |
| 2026-05-07 11:04 | 32.81235 | 29.14288 | 36160 ft | 386 kts | 325° |
| 2026-05-07 11:05 | 32.85576 | 29.10487 | 36159 ft | 386 kts | 325° |
| 2026-05-07 11:05 | 32.89893 | 29.06708 | 36161 ft | 383 kts | 324° |
| 2026-05-07 11:06 | 32.94202 | 29.02933 | 36163 ft | 383 kts | 324° |
| 2026-05-07 11:06 | 32.98480 | 28.99172 | 36168 ft | 384 kts | 325° |
| 2026-05-07 11:07 | 33.02781 | 28.95397 | 36163 ft | 384 kts | 324° |
| 2026-05-07 11:07 | 33.07035 | 28.91649 | 36161 ft | 383 kts | 324° |
| 2026-05-07 11:08 | 33.11318 | 28.87878 | 36172 ft | 382 kts | 325° |
| 2026-05-07 11:08 | 33.15583 | 28.84141 | 36154 ft | 382 kts | 324° |
| 2026-05-07 11:09 | 33.19874 | 28.80363 | 36168 ft | 381 kts | 324° |
| 2026-05-07 11:09 | 33.24139 | 28.76599 | 36166 ft | 381 kts | 324° |
| 2026-05-07 11:10 | 33.28377 | 28.72837 | 36162 ft | 380 kts | 324° |
| 2026-05-07 11:10 | 33.32635 | 28.69065 | 36164 ft | 380 kts | 324° |
| 2026-05-07 11:11 | 33.36870 | 28.65307 | 36165 ft | 380 kts | 324° |
| 2026-05-07 11:11 | 33.41083 | 28.61560 | 36167 ft | 378 kts | 323° |
| 2026-05-07 11:12 | 33.45317 | 28.57791 | 36166 ft | 378 kts | 323° |
| 2026-05-07 11:12 | 33.49535 | 28.54030 | 36162 ft | 378 kts | 324° |
| 2026-05-07 11:13 | 33.53725 | 28.50292 | 36161 ft | 377 kts | 324° |
| 2026-05-07 11:13 | 33.57918 | 28.46544 | 36169 ft | 377 kts | 323° |
| 2026-05-07 11:14 | 33.62126 | 28.42775 | 36167 ft | 378 kts | 323° |
| 2026-05-07 11:14 | 33.66360 | 28.38977 | 36165 ft | 378 kts | 323° |
| 2026-05-07 11:15 | 33.70547 | 28.35208 | 36165 ft | 376 kts | 323° |
| 2026-05-07 11:15 | 33.74702 | 28.31452 | 36168 ft | 376 kts | 322° |
| 2026-05-07 11:16 | 33.78929 | 28.27724 | 36162 ft | 377 kts | 325° |
| 2026-05-07 11:16 | 33.83378 | 28.24442 | 36161 ft | 377 kts | 329° |
| 2026-05-07 11:17 | 33.87960 | 28.21337 | 36166 ft | 377 kts | 329° |
| 2026-05-07 11:17 | 33.92518 | 28.18246 | 36165 ft | 377 kts | 329° |
| 2026-05-07 11:18 | 33.97089 | 28.15159 | 36163 ft | 378 kts | 329° |
| 2026-05-07 11:18 | 34.01661 | 28.12062 | 36164 ft | 377 kts | 328° |
| 2026-05-07 11:19 | 34.06233 | 28.08961 | 36163 ft | 376 kts | 329° |
| 2026-05-07 11:19 | 34.10810 | 28.05851 | 36167 ft | 377 kts | 329° |
| 2026-05-07 11:20 | 34.15375 | 28.02764 | 36168 ft | 377 kts | 328° |
| 2026-05-07 11:20 | 34.19959 | 27.99658 | 36157 ft | 377 kts | 328° |
| 2026-05-07 11:21 | 34.24527 | 27.96541 | 36166 ft | 377 kts | 329° |
| 2026-05-07 11:21 | 34.29134 | 27.93395 | 36154 ft | 379 kts | 329° |
| 2026-05-07 11:22 | 34.33712 | 27.90264 | 36155 ft | 379 kts | 329° |
| 2026-05-07 11:22 | 34.38306 | 27.87121 | 36156 ft | 377 kts | 328° |
| 2026-05-07 11:23 | 34.42904 | 27.83964 | 36159 ft | 379 kts | 329° |
| 2026-05-07 11:23 | 34.47481 | 27.80816 | 36156 ft | 380 kts | 328° |
| 2026-05-07 11:24 | 34.52077 | 27.77656 | 36158 ft | 379 kts | 329° |
| 2026-05-07 11:24 | 34.56641 | 27.74527 | 36155 ft | 379 kts | 328° |
| 2026-05-07 11:25 | 34.61267 | 27.71343 | 36147 ft | 381 kts | 328° |
| 2026-05-07 11:25 | 34.65881 | 27.68157 | 36144 ft | 382 kts | 328° |
| 2026-05-07 11:26 | 34.70493 | 27.64961 | 36145 ft | 380 kts | 328° |
| 2026-05-07 11:26 | 34.75082 | 27.61775 | 36142 ft | 381 kts | 328° |
| 2026-05-07 11:27 | 34.79697 | 27.58573 | 36149 ft | 383 kts | 327° |
| 2026-05-07 11:27 | 34.84327 | 27.55350 | 36138 ft | 383 kts | 328° |
| 2026-05-07 11:28 | 34.88961 | 27.52123 | 36144 ft | 383 kts | 327° |
| 2026-05-07 11:28 | 34.93567 | 27.48912 | 36142 ft | 384 kts | 328° |
| 2026-05-07 11:29 | 34.98217 | 27.45658 | 36138 ft | 385 kts | 328° |
| 2026-05-07 11:29 | 35.02856 | 27.42418 | 36145 ft | 385 kts | 328° |
| 2026-05-07 11:30 | 35.07513 | 27.39160 | 36139 ft | 385 kts | 327° |
| 2026-05-07 11:30 | 35.12154 | 27.35906 | 36147 ft | 385 kts | 328° |
| 2026-05-07 11:31 | 35.16817 | 27.32638 | 36143 ft | 385 kts | 327° |
| 2026-05-07 11:31 | 35.21461 | 27.29357 | 36145 ft | 385 kts | 327° |
| 2026-05-07 11:32 | 35.28420 | 27.24447 | 36147 ft | 385 kts | 327° |
| 2026-05-07 11:33 | 35.33046 | 27.21170 | 36150 ft | 387 kts | 327° |
| 2026-05-07 11:33 | 35.37710 | 27.17877 | 36148 ft | 388 kts | 327° |
| 2026-05-07 11:34 | 35.42433 | 27.14650 | 36153 ft | 389 kts | 330° |
| 2026-05-07 11:34 | 35.47373 | 27.11812 | 36154 ft | 392 kts | 331° |
| 2026-05-07 11:35 | 35.52319 | 27.09034 | 36149 ft | 392 kts | 331° |
| 2026-05-07 11:35 | 35.57268 | 27.06244 | 36154 ft | 392 kts | 331° |
| 2026-05-07 11:36 | 35.62204 | 27.03460 | 36149 ft | 393 kts | 331° |
| 2026-05-07 11:36 | 35.67172 | 27.00651 | 36144 ft | 393 kts | 331° |
| 2026-05-07 11:37 | 35.72132 | 26.97843 | 36145 ft | 392 kts | 331° |
| 2026-05-07 11:37 | 35.77084 | 26.95035 | 36147 ft | 393 kts | 331° |
| 2026-05-07 11:38 | 35.82053 | 26.92208 | 36151 ft | 393 kts | 331° |
| 2026-05-07 11:38 | 35.87021 | 26.89389 | 36140 ft | 395 kts | 331° |
| 2026-05-07 11:39 | 35.92031 | 26.86537 | 36149 ft | 396 kts | 330° |
| 2026-05-07 11:39 | 35.97019 | 26.83683 | 36147 ft | 396 kts | 330° |
| 2026-05-07 11:40 | 36.02044 | 26.80801 | 36140 ft | 396 kts | 330° |
| 2026-05-07 11:40 | 36.07075 | 26.77909 | 36135 ft | 396 kts | 331° |
| 2026-05-07 11:41 | 36.10376 | 26.76011 | 36139 ft | 397 kts | 331° |
| 2026-05-07 11:41 | 36.12664 | 26.74700 | 36140 ft | 397 kts | 331° |
| 2026-05-07 11:42 | 36.17784 | 26.71761 | 36143 ft | 399 kts | 331° |
| 2026-05-07 11:42 | 36.22803 | 26.68858 | 36135 ft | 400 kts | 331° |
| 2026-05-07 11:43 | 36.27851 | 26.65939 | 36141 ft | 400 kts | 330° |
| 2026-05-07 11:43 | 36.32877 | 26.63043 | 36141 ft | 400 kts | 331° |
| 2026-05-07 11:44 | 36.37938 | 26.60115 | 36142 ft | 401 kts | 331° |
| 2026-05-07 11:44 | 36.42979 | 26.57183 | 36140 ft | 402 kts | 331° |
| 2026-05-07 11:45 | 36.48025 | 26.54239 | 36144 ft | 401 kts | 330° |
| 2026-05-07 11:45 | 36.53072 | 26.51300 | 36142 ft | 401 kts | 331° |
| 2026-05-07 11:46 | 36.58137 | 26.48359 | 36143 ft | 401 kts | 331° |
| 2026-05-07 11:46 | 36.63205 | 26.45407 | 36150 ft | 402 kts | 331° |
| 2026-05-07 11:47 | 36.68267 | 26.42445 | 36158 ft | 403 kts | 330° |
| 2026-05-07 11:47 | 36.73326 | 26.39475 | 36150 ft | 404 kts | 330° |
| 2026-05-07 11:48 | 36.78392 | 26.36497 | 35872 ft | 404 kts | 330° |
| 2026-05-07 11:48 | 36.80960 | 26.34985 | 36035 ft | 404 kts | 330° |
| 2026-05-07 11:48 | 36.83500 | 26.33477 | 36432 ft | 405 kts | 330° |
| 2026-05-07 11:48 | 36.86039 | 26.31965 | 35952 ft | 404 kts | 330° |
| 2026-05-07 11:49 | 36.88570 | 26.30464 | 36035 ft | 404 kts | 330° |
| 2026-05-07 11:49 | 36.93644 | 26.27455 | 36122 ft | 407 kts | 330° |
| 2026-05-07 11:50 | 36.98742 | 26.24440 | 36142 ft | 406 kts | 329° |
| 2026-05-07 11:50 | 37.03880 | 26.21357 | 36138 ft | 409 kts | 330° |
| 2026-05-07 11:51 | 37.09010 | 26.18361 | 36135 ft | 409 kts | 330° |
| 2026-05-07 11:51 | 37.14158 | 26.15346 | 36135 ft | 410 kts | 330° |
| 2026-05-07 11:52 | 37.19337 | 26.12302 | 36136 ft | 409 kts | 330° |
| 2026-05-07 11:52 | 37.24504 | 26.09247 | 36147 ft | 411 kts | 330° |
| 2026-05-07 11:53 | 37.29637 | 26.06200 | 36139 ft | 411 kts | 330° |
| 2026-05-07 11:53 | 37.34798 | 26.03134 | 36133 ft | 412 kts | 330° |
| 2026-05-07 11:54 | 37.39986 | 26.00041 | 36132 ft | 413 kts | 330° |
| 2026-05-07 11:54 | 37.45168 | 25.96946 | 36136 ft | 413 kts | 330° |
| 2026-05-07 11:55 | 37.50360 | 25.93840 | 36138 ft | 413 kts | 330° |
| 2026-05-07 11:55 | 37.55557 | 25.90728 | 36141 ft | 413 kts | 330° |
| 2026-05-07 11:56 | 37.60744 | 25.87617 | 36141 ft | 414 kts | 330° |
| 2026-05-07 11:56 | 37.65947 | 25.84492 | 36135 ft | 415 kts | 330° |
| 2026-05-07 11:57 | 37.71137 | 25.81367 | 36142 ft | 415 kts | 330° |
| 2026-05-07 11:57 | 37.76335 | 25.78234 | 36138 ft | 416 kts | 330° |
| 2026-05-07 11:58 | 37.81574 | 25.75071 | 36138 ft | 417 kts | 330° |
| 2026-05-07 11:58 | 37.86812 | 25.71907 | 36134 ft | 418 kts | 330° |
| 2026-05-07 11:59 | 37.92057 | 25.68731 | 36132 ft | 418 kts | 330° |
| 2026-05-07 11:59 | 37.97293 | 25.65555 | 36129 ft | 418 kts | 330° |
| 2026-05-07 12:00 | 38.02530 | 25.62373 | 36133 ft | 418 kts | 330° |
| 2026-05-07 12:00 | 38.07782 | 25.59178 | 36129 ft | 419 kts | 330° |
| 2026-05-07 12:01 | 38.13007 | 25.56001 | 36126 ft | 419 kts | 330° |
| 2026-05-07 12:01 | 38.18294 | 25.52793 | 36126 ft | 421 kts | 330° |
| 2026-05-07 12:02 | 38.23555 | 25.49583 | 36121 ft | 421 kts | 330° |
| 2026-05-07 12:02 | 38.28846 | 25.46350 | 36122 ft | 421 kts | 330° |
| 2026-05-07 12:03 | 38.34131 | 25.43110 | 36119 ft | 422 kts | 330° |
| 2026-05-07 12:03 | 38.39392 | 25.39880 | 36129 ft | 422 kts | 330° |
| 2026-05-07 12:04 | 38.44692 | 25.36617 | 36136 ft | 423 kts | 330° |
| 2026-05-07 12:04 | 38.49987 | 25.33343 | 36129 ft | 425 kts | 329° |
| 2026-05-07 12:05 | 38.55295 | 25.30039 | 36130 ft | 425 kts | 329° |
| 2026-05-07 12:05 | 38.60596 | 25.26748 | 36131 ft | 425 kts | 330° |
| 2026-05-07 12:06 | 38.65940 | 25.23433 | 36132 ft | 426 kts | 330° |
| 2026-05-07 12:06 | 38.71264 | 25.20126 | 36137 ft | 427 kts | 330° |
| 2026-05-07 12:07 | 38.76536 | 25.16848 | 36135 ft | 427 kts | 330° |
| 2026-05-07 12:07 | 38.81864 | 25.13530 | 36124 ft | 428 kts | 330° |
| 2026-05-07 12:08 | 38.87137 | 25.10244 | 36129 ft | 428 kts | 330° |
| 2026-05-07 12:08 | 38.92486 | 25.06901 | 36135 ft | 429 kts | 330° |
| 2026-05-07 12:09 | 38.97814 | 25.03570 | 36138 ft | 429 kts | 330° |
| 2026-05-07 12:09 | 39.03165 | 25.00217 | 36126 ft | 429 kts | 330° |
| 2026-05-07 12:10 | 39.08525 | 24.96851 | 36122 ft | 429 kts | 330° |
| 2026-05-07 12:10 | 39.13893 | 24.93488 | 36124 ft | 429 kts | 330° |
| 2026-05-07 12:11 | 39.19252 | 24.90130 | 36124 ft | 428 kts | 330° |
| 2026-05-07 12:11 | 39.24566 | 24.86785 | 36119 ft | 428 kts | 330° |
| 2026-05-07 12:12 | 39.29928 | 24.83400 | 36125 ft | 429 kts | 330° |
| 2026-05-07 12:12 | 39.35268 | 24.80020 | 36125 ft | 428 kts | 330° |
| 2026-05-07 12:13 | 39.40622 | 24.76623 | 36126 ft | 429 kts | 330° |
| 2026-05-07 12:13 | 39.45950 | 24.73238 | 36128 ft | 429 kts | 330° |
| 2026-05-07 12:14 | 39.51281 | 24.69847 | 36124 ft | 428 kts | 330° |
| 2026-05-07 12:14 | 39.56654 | 24.66421 | 36128 ft | 429 kts | 330° |
| 2026-05-07 12:15 | 39.61971 | 24.63026 | 36128 ft | 428 kts | 330° |
| 2026-05-07 12:15 | 39.67321 | 24.59604 | 36129 ft | 428 kts | 330° |
| 2026-05-07 12:16 | 39.72661 | 24.56182 | 36124 ft | 428 kts | 330° |
| 2026-05-07 12:16 | 39.77958 | 24.52781 | 36122 ft | 428 kts | 330° |
| 2026-05-07 12:17 | 39.83295 | 24.49348 | 36128 ft | 428 kts | 330° |
| 2026-05-07 12:17 | 39.88649 | 24.45900 | 36129 ft | 428 kts | 330° |
| 2026-05-07 12:18 | 39.93974 | 24.42462 | 36126 ft | 428 kts | 330° |
| 2026-05-07 12:18 | 39.99278 | 24.39034 | 36126 ft | 428 kts | 331° |
| 2026-05-07 12:19 | 40.04609 | 24.35582 | 36123 ft | 428 kts | 330° |
| 2026-05-07 12:19 | 40.09948 | 24.32101 | 36125 ft | 428 kts | 330° |
| 2026-05-07 12:20 | 40.15254 | 24.28646 | 36126 ft | 428 kts | 330° |
| 2026-05-07 12:20 | 40.20560 | 24.25199 | 36133 ft | 427 kts | 330° |
| 2026-05-07 12:21 | 40.25877 | 24.21733 | 36137 ft | 427 kts | 330° |
| 2026-05-07 12:21 | 40.31195 | 24.18261 | 36134 ft | 427 kts | 329° |
| 2026-05-07 12:22 | 40.36509 | 24.14782 | 36130 ft | 427 kts | 329° |
| 2026-05-07 12:22 | 40.41816 | 24.11303 | 36126 ft | 427 kts | 330° |
| 2026-05-07 12:23 | 40.47111 | 24.07825 | 36122 ft | 427 kts | 330° |
| 2026-05-07 12:23 | 40.52421 | 24.04331 | 36120 ft | 427 kts | 329° |
| 2026-05-07 12:24 | 40.57734 | 24.00830 | 36121 ft | 428 kts | 329° |
| 2026-05-07 12:24 | 40.63073 | 23.97304 | 36119 ft | 430 kts | 330° |
| 2026-05-07 12:25 | 40.68369 | 23.93799 | 36121 ft | 429 kts | 330° |
| 2026-05-07 12:25 | 40.73693 | 23.90271 | 36126 ft | 430 kts | 329° |
| 2026-05-07 12:26 | 40.79048 | 23.86717 | 36123 ft | 430 kts | 330° |
| 2026-05-07 12:26 | 40.84395 | 23.83160 | 36120 ft | 433 kts | 329° |
| 2026-05-07 12:26 | 40.87064 | 23.81379 | 35901 ft | 437 kts | 329° |
| 2026-05-07 12:27 | 40.89804 | 23.79553 | 35163 ft | 440 kts | 329° |
| 2026-05-07 12:27 | 40.92517 | 23.77742 | 34384 ft | 444 kts | 329° |
| 2026-05-07 12:27 | 40.95263 | 23.75906 | 33539 ft | 446 kts | 330° |
| 2026-05-07 12:27 | 40.98033 | 23.74054 | 32807 ft | 445 kts | 329° |
| 2026-05-07 12:28 | 41.00767 | 23.72227 | 32086 ft | 444 kts | 329° |
| 2026-05-07 12:28 | 41.03516 | 23.70384 | 31348 ft | 443 kts | 330° |
| 2026-05-07 12:28 | 41.06258 | 23.68544 | 30707 ft | 440 kts | 330° |
| 2026-05-07 12:28 | 41.09002 | 23.66701 | 30049 ft | 438 kts | 330° |
| 2026-05-07 12:29 | 41.11685 | 23.64901 | 29397 ft | 436 kts | 330° |
| 2026-05-07 12:29 | 41.14386 | 23.63097 | 28712 ft | 436 kts | 330° |
| 2026-05-07 12:29 | 41.17113 | 23.61269 | 27991 ft | 436 kts | 330° |
| 2026-05-07 12:29 | 41.19789 | 23.59471 | 27273 ft | 436 kts | 330° |
| 2026-05-07 12:30 | 41.22486 | 23.57651 | 26525 ft | 436 kts | 330° |
| 2026-05-07 12:30 | 41.25170 | 23.55837 | 26037 ft | 433 kts | 330° |
| 2026-05-07 12:30 | 41.27834 | 23.54032 | 25564 ft | 429 kts | 330° |
| 2026-05-07 12:30 | 41.30481 | 23.52237 | 25052 ft | 426 kts | 330° |
| 2026-05-07 12:31 | 41.33091 | 23.50465 | 24550 ft | 422 kts | 330° |
| 2026-05-07 12:31 | 41.35692 | 23.48701 | 24051 ft | 418 kts | 330° |
| 2026-05-07 12:31 | 41.38338 | 23.47096 | 23535 ft | 417 kts | 338° |
| 2026-05-07 12:31 | 41.41147 | 23.46142 | 23014 ft | 418 kts | 348° |
| 2026-05-07 12:32 | 41.44027 | 23.45885 | 22511 ft | 418 kts | 359° |
| 2026-05-07 12:32 | 41.46928 | 23.46075 | 22001 ft | 416 kts | 1° |
| 2026-05-07 12:32 | 41.49797 | 23.46343 | 21478 ft | 413 kts | 2° |
| 2026-05-07 12:32 | 41.52639 | 23.46615 | 20972 ft | 411 kts | 2° |
| 2026-05-07 12:33 | 41.58318 | 23.47139 | 19994 ft | 408 kts | 1° |
| 2026-05-07 12:33 | 41.61142 | 23.47390 | 19481 ft | 405 kts | 1° |
| 2026-05-07 12:33 | 41.63938 | 23.47634 | 18975 ft | 402 kts | 2° |
| 2026-05-07 12:34 | 41.66708 | 23.47876 | 18472 ft | 400 kts | 2° |
| 2026-05-07 12:34 | 41.69470 | 23.48116 | 17975 ft | 397 kts | 2° |
| 2026-05-07 12:34 | 41.72215 | 23.48355 | 17475 ft | 395 kts | 2° |
| 2026-05-07 12:34 | 41.74950 | 23.48593 | 16984 ft | 392 kts | 2° |
| 2026-05-07 12:35 | 41.77678 | 23.48831 | 16476 ft | 389 kts | 2° |
| 2026-05-07 12:35 | 41.80362 | 23.49063 | 15979 ft | 386 kts | 2° |
| 2026-05-07 12:35 | 41.83031 | 23.49294 | 15474 ft | 384 kts | 2° |
| 2026-05-07 12:35 | 41.85674 | 23.49523 | 14972 ft | 381 kts | 2° |
| 2026-05-07 12:36 | 41.88315 | 23.49754 | 14467 ft | 378 kts | 2° |
| 2026-05-07 12:36 | 41.90902 | 23.49980 | 13986 ft | 376 kts | 2° |
| 2026-05-07 12:36 | 41.93530 | 23.50211 | 13484 ft | 373 kts | 2° |
| 2026-05-07 12:36 | 41.96096 | 23.50437 | 13003 ft | 370 kts | 2° |
| 2026-05-07 12:37 | 41.98653 | 23.50660 | 12523 ft | 367 kts | 2° |
| 2026-05-07 12:37 | 42.01188 | 23.50881 | 12039 ft | 365 kts | 3° |
| 2026-05-07 12:37 | 42.03704 | 23.51101 | 11562 ft | 363 kts | 3° |
| 2026-05-07 12:37 | 42.06234 | 23.51322 | 11077 ft | 360 kts | 3° |
| 2026-05-07 12:38 | 42.08731 | 23.51541 | 10598 ft | 358 kts | 3° |
| 2026-05-07 12:38 | 42.11171 | 23.51755 | 10422 ft | 359 kts | 3° |
| 2026-05-07 12:38 | 42.13726 | 23.51977 | 10283 ft | 367 kts | 3° |
| 2026-05-07 12:38 | 42.16275 | 23.52201 | 10157 ft | 368 kts | 3° |
| 2026-05-07 12:39 | 42.18832 | 23.52426 | 10063 ft | 367 kts | 3° |
| 2026-05-07 12:39 | 42.21379 | 23.52650 | 10029 ft | 368 kts | 3° |
| 2026-05-07 12:39 | 42.23935 | 23.52874 | 9982 ft | 364 kts | 3° |
| 2026-05-07 12:39 | 42.26443 | 23.53094 | 9542 ft | 360 kts | 3° |
| 2026-05-07 12:40 | 42.28914 | 23.53310 | 8932 ft | 360 kts | 3° |
| 2026-05-07 12:40 | 42.31403 | 23.53529 | 8376 ft | 357 kts | 3° |
| 2026-05-07 12:40 | 42.33879 | 23.53748 | 8071 ft | 355 kts | 3° |
| 2026-05-07 12:40 | 42.36339 | 23.53965 | 8018 ft | 353 kts | 3° |
| 2026-05-07 12:41 | 42.38754 | 23.54179 | 7704 ft | 348 kts | 3° |
| 2026-05-07 12:41 | 42.41155 | 23.54391 | 7273 ft | 342 kts | 3° |
| 2026-05-07 12:41 | 42.43533 | 23.54601 | 6846 ft | 336 kts | 3° |
| 2026-05-07 12:41 | 42.45837 | 23.54804 | 6433 ft | 331 kts | 3° |
| 2026-05-07 12:42 | 42.48102 | 23.55003 | 6090 ft | 323 kts | 3° |
| 2026-05-07 12:42 | 42.50297 | 23.55197 | 6012 ft | 309 kts | 3° |
| 2026-05-07 12:42 | 42.52445 | 23.55386 | 6004 ft | 308 kts | 3° |
| 2026-05-07 12:42 | 42.54547 | 23.55571 | 5890 ft | 302 kts | 3° |
| 2026-05-07 12:43 | 42.56636 | 23.55754 | 5669 ft | 293 kts | 3° |
| 2026-05-07 12:43 | 42.58627 | 23.55929 | 5483 ft | 283 kts | 3° |
| 2026-05-07 12:43 | 42.60565 | 23.56099 | 5284 ft | 272 kts | 4° |
| 2026-05-07 12:43 | 42.62398 | 23.56260 | 5005 ft | 258 kts | 4° |
| 2026-05-07 12:44 | 42.64150 | 23.56415 | 4741 ft | 247 kts | 4° |
| 2026-05-07 12:44 | 42.65836 | 23.56564 | 4572 ft | 239 kts | 4° |
| 2026-05-07 12:44 | 42.67466 | 23.56707 | 4409 ft | 229 kts | 2° |
| 2026-05-07 12:44 | 42.68957 | 23.56375 | 4072 ft | 211 kts | 330° |
| 2026-05-07 12:45 | 42.69819 | 23.54933 | 3697 ft | 192 kts | 282° |
| 2026-05-07 12:45 | 42.69732 | 23.53268 | 3443 ft | 171 kts | 256° |
| 2026-05-07 12:45 | 42.69467 | 23.51742 | 3059 ft | 166 kts | 257° |
| 2026-05-07 12:45 | 42.69224 | 23.50235 | 2649 ft | 163 kts | 261° |
| 2026-05-07 12:46 | 42.69166 | 23.48766 | 2415 ft | 149 kts | 274° |
| 2026-05-07 12:46 | 42.69272 | 23.47425 | 2150 ft | 139 kts | 277° |
| 2026-05-07 12:46 | 42.69391 | 23.46126 | 2012 ft | 140 kts | 275° |
| 2026-05-07 12:46 | 42.69461 | 23.44810 | 1890 ft | 141 kts | 274° |
| 2026-05-07 12:47 | 42.69533 | 23.43479 | 1772 ft | 139 kts | 274° |
| 2026-05-07 12:47 | 42.69611 | 23.42301 | 1760 ft | 108 kts | 275° |
| 2026-05-07 12:47 | 42.69575 | 23.41552 | 1760 ft | 58 kts | 247° |
| 2026-05-07 12:47 | 42.69472 | 23.41238 | 1760 ft | 23 kts | 227° |
| 2026-05-07 12:48 | 42.69349 | 23.41184 | 1760 ft | 17 kts | 194° |
| 2026-05-07 12:48 | 42.69234 | 23.41146 | 1760 ft | 15 kts | 191° |
| 2026-05-07 12:48 | 42.69134 | 23.41104 | 1760 ft | 15 kts | 223° |
| 2026-05-07 12:48 | 42.69081 | 23.41056 | 1760 ft | 9 kts | 156° |
| 2026-05-07 12:49 | 42.69029 | 23.41081 | 1761 ft | 2 kts | 162° |
| 2026-05-07 12:49 | 42.69024 | 23.41083 | 1761 ft | 0 kts | 162° |